createdAt,value
2019-04-16T00:01:56.004Z,10.80
2019-04-16T00:04:56.905Z,9.78
2019-04-16T00:08:08.273Z,11.45
2019-04-16T00:11:10.973Z,10.68
2019-04-16T00:13:56.855Z,11.20
2019-04-16T00:16:25.611Z,10.28
2019-04-16T00:18:58.145Z,10.25
2019-04-16T00:21:54.311Z,10.40
2019-04-16T00:24:29.223Z,9.40
2019-04-16T00:26:59.362Z,10.40
2019-04-16T00:29:42.925Z,9.30
2019-04-16T00:32:19.722Z,8.95
2019-04-16T00:34:47.696Z,10.10
2019-04-16T00:37:15.535Z,9.30
2019-04-16T00:39:43.225Z,10.00
2019-04-16T00:42:11.353Z,9.68
2019-04-16T00:44:39.148Z,9.73
2019-04-16T00:47:07.897Z,9.80
2019-04-16T00:49:37.883Z,10.50
2019-04-16T00:52:07.024Z,11.78
2019-04-16T00:54:34.974Z,12.35
2019-04-16T00:57:02.867Z,14.55
2019-04-16T00:59:30.544Z,15.23
2019-04-16T01:01:58.913Z,14.65
2019-04-16T01:04:26.636Z,15.38
2019-04-16T01:06:57.353Z,15.30
2019-04-16T01:09:24.971Z,15.80
2019-04-16T01:11:56.505Z,17.57
2019-04-16T01:14:26.785Z,15.95
2019-04-16T01:17:04.089Z,16.30
2019-04-16T01:19:29.434Z,16.95
2019-04-16T01:21:57.316Z,16.32
2019-04-16T01:24:26.311Z,17.52
2019-04-16T01:26:55.510Z,18.05
2019-04-16T01:29:25.014Z,17.52
2019-04-16T01:32:12.150Z,19.52
2019-04-16T01:35:01.973Z,18.10
2019-04-16T01:37:49.121Z,19.05
2019-04-16T01:40:22.185Z,16.45
2019-04-16T01:42:54.401Z,17.02
2019-04-16T01:45:29.629Z,17.57
2019-04-16T01:48:00.358Z,17.60
2019-04-16T01:50:28.182Z,17.80
2019-04-16T01:52:58.627Z,17.30
2019-04-16T01:55:26.555Z,17.15
2019-04-16T01:57:59.677Z,18.82
2019-04-16T02:00:29.982Z,16.32
2019-04-16T02:02:57.679Z,15.30
2019-04-16T02:05:25.613Z,16.20
2019-04-16T02:07:53.436Z,17.75
2019-04-16T02:10:21.357Z,17.37
2019-04-16T02:12:50.058Z,16.65
2019-04-16T02:15:21.600Z,15.38
2019-04-16T02:17:48.636Z,15.98
2019-04-16T02:20:16.424Z,16.30
2019-04-16T02:22:47.012Z,16.95
2019-04-16T02:25:18.914Z,15.32
2019-04-16T02:27:44.573Z,15.55
2019-04-16T02:30:12.875Z,16.57
2019-04-16T02:32:40.988Z,16.87
2019-04-16T02:35:14.862Z,15.05
2019-04-16T02:37:42.623Z,15.90
2019-04-16T02:40:16.990Z,16.60
2019-04-16T02:42:41.984Z,16.75
2019-04-16T02:45:10.434Z,16.07
2019-04-16T02:47:41.846Z,16.55
2019-04-16T02:50:13.584Z,16.37
2019-04-16T02:52:52.342Z,15.80
2019-04-16T02:55:42.595Z,15.83
2019-04-16T02:58:18.223Z,16.25
2019-04-16T03:01:12.839Z,16.37
2019-04-16T03:03:55.543Z,16.17
2019-04-16T03:06:31.678Z,15.70
2019-04-16T03:08:57.750Z,14.73
2019-04-16T03:11:27.496Z,15.65
2019-04-16T03:13:58.185Z,14.70
2019-04-16T03:16:38.768Z,16.57
2019-04-16T03:19:19.269Z,15.85
2019-04-16T03:21:44.944Z,15.20
2019-04-16T03:24:12.935Z,15.58
2019-04-16T03:26:40.721Z,16.35
2019-04-16T03:29:08.502Z,15.32
2019-04-16T03:31:37.254Z,16.15
2019-04-16T03:34:05.173Z,16.75
2019-04-16T03:36:32.988Z,15.58
2019-04-16T03:39:00.837Z,17.77
2019-04-16T03:41:28.821Z,16.57
2019-04-16T03:43:57.756Z,15.85
2019-04-16T03:46:25.450Z,16.77
2019-04-16T03:48:56.106Z,17.32
2019-04-16T03:51:23.031Z,16.75
2019-04-16T03:53:57.432Z,17.07
2019-04-16T03:56:30.268Z,16.97
2019-04-16T03:58:57.303Z,17.23
2019-04-16T04:01:31.269Z,18.75
2019-04-16T04:03:59.172Z,17.92
2019-04-16T04:06:31.374Z,17.32
2019-04-16T04:08:59.009Z,18.37
2019-04-16T04:11:28.957Z,18.27
2019-04-16T04:13:56.615Z,16.35
2019-04-16T04:16:24.610Z,17.70
2019-04-16T04:18:52.502Z,17.02
2019-04-16T04:21:22.494Z,17.70
2019-04-16T04:23:51.396Z,17.77
2019-04-16T04:26:19.053Z,16.57
2019-04-16T04:28:48.526Z,18.62
2019-04-16T04:31:18.867Z,18.27
2019-04-16T04:33:49.968Z,19.17
2019-04-16T04:36:19.343Z,18.27
2019-04-16T04:38:48.566Z,17.95
2019-04-16T04:41:16.544Z,18.12
2019-04-16T04:43:44.238Z,20.12
2019-04-16T04:46:14.504Z,22.20
2019-04-16T04:48:41.390Z,17.65
2019-04-16T04:51:10.568Z,20.15
2019-04-16T04:53:38.244Z,18.60
2019-04-16T04:56:06.078Z,19.75
2019-04-16T04:58:34.869Z,19.00
2019-04-16T05:01:02.511Z,19.45
2019-04-16T05:03:55.802Z,18.40
2019-04-16T05:06:27.957Z,18.42
2019-04-16T05:08:57.678Z,18.15
2019-04-16T05:11:25.276Z,18.55
2019-04-16T05:13:53.460Z,19.02
2019-04-16T05:16:31.570Z,16.85
2019-04-16T05:19:00.678Z,17.52
2019-04-16T05:21:29.552Z,19.07
2019-04-16T05:23:58.068Z,18.32
2019-04-16T05:26:26.357Z,18.23
2019-04-16T05:28:57.128Z,17.00
2019-04-16T05:31:26.129Z,18.40
2019-04-16T05:33:54.495Z,18.45
2019-04-16T05:36:23.088Z,18.40
2019-04-16T05:38:55.465Z,20.60
2019-04-16T05:41:24.556Z,20.88
2019-04-16T05:43:52.034Z,22.52
2019-04-16T05:46:21.841Z,19.65
2019-04-16T05:48:51.366Z,17.87
2019-04-16T05:51:19.364Z,30.85
2019-04-16T05:53:51.711Z,20.00
2019-04-16T05:56:41.611Z,19.00
2019-04-16T05:59:09.533Z,18.80
2019-04-16T06:01:46.231Z,19.80
2019-04-16T06:04:14.455Z,17.65
2019-04-16T06:06:42.202Z,19.37
2019-04-16T06:09:12.186Z,20.43
2019-04-16T06:11:41.682Z,19.65
2019-04-16T06:14:32.422Z,18.65
2019-04-16T06:17:38.151Z,35.50
2019-04-16T06:20:22.682Z,22.90
2019-04-16T06:23:09.482Z,20.27
2019-04-16T06:25:44.860Z,20.77
2019-04-16T06:28:44.330Z,18.67
2019-04-16T06:31:25.536Z,18.73
2019-04-16T06:34:12.658Z,17.67
2019-04-16T06:36:59.812Z,16.77
2019-04-16T06:39:54.030Z,18.55
2019-04-16T06:42:28.613Z,18.70
2019-04-16T06:45:01.627Z,18.48
2019-04-16T06:47:47.859Z,19.05
2019-04-16T06:50:40.651Z,17.45
2019-04-16T06:53:25.399Z,16.62
2019-04-16T06:56:28.024Z,18.50
2019-04-16T06:59:00.965Z,19.27
2019-04-16T07:01:46.885Z,50.23
2019-04-16T07:04:46.529Z,27.02
2019-04-16T07:07:39.638Z,21.17
2019-04-16T07:10:07.054Z,20.25
2019-04-16T07:12:38.430Z,21.93
2019-04-16T07:15:06.520Z,21.00
2019-04-16T07:17:34.575Z,21.40
2019-04-16T07:20:04.658Z,19.85
2019-04-16T07:22:32.871Z,23.85
2019-04-16T07:25:04.462Z,21.87
2019-04-16T07:27:45.082Z,21.50
2019-04-16T07:30:20.678Z,22.20
2019-04-16T07:33:00.376Z,21.70
2019-04-16T07:35:51.470Z,23.07
2019-04-16T07:38:35.203Z,24.20
2019-04-16T07:41:43.066Z,21.00
2019-04-16T07:44:18.041Z,22.27
2019-04-16T07:47:20.794Z,27.30
2019-04-16T07:49:55.932Z,24.32
2019-04-16T07:52:42.725Z,24.27
2019-04-16T07:55:29.660Z,28.62
2019-04-16T07:57:57.469Z,18.98
2019-04-16T08:00:25.361Z,20.52
2019-04-16T08:02:58.920Z,38.58
2019-04-16T08:05:28.077Z,18.37
2019-04-16T08:07:55.914Z,18.60
2019-04-16T08:10:28.603Z,38.33
2019-04-16T08:13:14.339Z,15.90
2019-04-16T08:15:44.601Z,19.63
2019-04-16T08:18:13.625Z,20.47
2019-04-16T08:20:41.446Z,18.77
2019-04-16T08:23:31.690Z,17.53
2019-04-16T08:26:03.993Z,14.77
2019-04-16T08:28:32.157Z,15.63
2019-04-16T08:31:02.243Z,16.23
2019-04-16T08:33:33.130Z,17.03
2019-04-16T08:36:00.924Z,16.20
2019-04-16T08:38:34.100Z,18.40
2019-04-16T08:41:01.575Z,16.47
2019-04-16T08:43:30.468Z,15.47
2019-04-16T08:45:58.277Z,16.20
2019-04-16T08:48:27.269Z,21.33
2019-04-16T08:50:58.490Z,22.70
2019-04-16T08:53:26.364Z,16.83
2019-04-16T08:55:55.363Z,16.03
2019-04-16T08:58:25.359Z,13.50
2019-04-16T09:00:53.326Z,15.83
2019-04-16T09:03:21.922Z,15.70
2019-04-16T09:05:54.289Z,14.40
2019-04-16T09:08:38.325Z,12.93
2019-04-16T09:11:21.829Z,11.60
2019-04-16T09:13:44.462Z,13.10
2019-04-16T09:16:14.410Z,13.40
2019-04-16T09:18:59.134Z,12.23
2019-04-16T09:21:28.104Z,13.60
2019-04-16T09:24:24.757Z,12.10
2019-04-16T09:27:29.607Z,13.40
2019-04-16T09:30:24.982Z,14.97
2019-04-16T09:33:00.960Z,54.60
2019-04-16T09:35:50.547Z,14.30
2019-04-16T09:38:45.184Z,11.97
2019-04-16T09:41:32.545Z,25.50
2019-04-16T09:44:10.161Z,10.60
2019-04-16T09:46:53.327Z,11.37
2019-04-16T09:49:07.893Z,10.37
2019-04-16T09:51:35.721Z,10.90
2019-04-16T09:54:03.594Z,10.87
2019-04-16T09:56:31.914Z,11.27
2019-04-16T09:59:15.839Z,10.97
2019-04-16T10:01:50.792Z,9.13
2019-04-16T10:04:22.091Z,18.43
2019-04-16T10:06:50.068Z,23.57
2019-04-16T10:09:21.738Z,15.40
2019-04-16T10:11:48.895Z,9.67
2019-04-16T10:14:18.881Z,10.13
2019-04-16T10:16:46.763Z,10.47
2019-04-16T10:19:21.744Z,11.67
2019-04-16T10:21:53.472Z,11.30
2019-04-16T10:24:39.299Z,10.00
2019-04-16T10:27:08.966Z,9.87
2019-04-16T10:29:36.804Z,12.87
2019-04-16T10:32:04.885Z,12.50
2019-04-16T10:34:36.289Z,18.73
2019-04-16T10:37:07.053Z,16.43
2019-04-16T10:39:57.716Z,14.80
2019-04-16T10:42:41.257Z,11.80
2019-04-16T10:45:29.545Z,18.03
2019-04-16T10:48:16.384Z,12.27
2019-04-16T10:51:03.660Z,11.60
2019-04-16T10:53:51.121Z,12.10
2019-04-16T10:56:36.790Z,20.27
2019-04-16T10:59:23.259Z,14.87
2019-04-16T11:02:11.718Z,12.20
2019-04-16T11:04:48.396Z,10.97
2019-04-16T11:07:20.006Z,11.60
2019-04-16T11:09:47.663Z,14.40
2019-04-16T11:12:15.619Z,11.20
2019-04-16T11:14:43.445Z,10.37
2019-04-16T11:17:11.245Z,11.30
2019-04-16T11:19:42.498Z,12.70
2019-04-16T11:22:10.265Z,11.63
2019-04-16T11:24:38.222Z,11.77
2019-04-16T11:27:06.064Z,10.50
2019-04-16T11:29:35.130Z,10.15
2019-04-16T11:32:05.173Z,11.75
2019-04-16T11:34:32.902Z,13.03
2019-04-16T11:37:09.833Z,13.00
2019-04-16T11:39:38.982Z,11.65
2019-04-16T11:42:06.763Z,9.83
2019-04-16T11:44:34.617Z,9.50
2019-04-16T11:47:04.207Z,8.93
2019-04-16T11:49:31.977Z,8.85
2019-04-16T11:51:59.853Z,7.55
2019-04-16T11:54:28.192Z,8.60
2019-04-16T11:56:59.345Z,9.18
2019-04-16T11:59:25.548Z,30.05
2019-04-16T12:02:21.585Z,57.40
2019-04-16T12:05:12.659Z,22.77
2019-04-16T12:07:47.138Z,9.73
2019-04-16T12:10:33.943Z,19.10
2019-04-16T12:13:20.592Z,12.15
2019-04-16T12:16:10.682Z,9.45
2019-04-16T12:18:56.771Z,12.13
2019-04-16T12:21:42.702Z,7.17
2019-04-16T12:24:22.841Z,6.95
2019-04-16T12:27:09.825Z,13.20
2019-04-16T12:29:54.983Z,8.15
2019-04-16T12:32:29.083Z,6.90
2019-04-16T12:35:19.450Z,28.17
2019-04-16T12:38:12.207Z,6.67
2019-04-16T12:40:53.758Z,10.53
2019-04-16T12:43:33.831Z,12.58
2019-04-16T12:46:12.411Z,7.25
2019-04-16T12:48:59.209Z,4.72
2019-04-16T12:51:49.056Z,5.80
2019-04-16T12:54:37.766Z,4.80
2019-04-16T12:57:38.821Z,5.22
2019-04-16T13:00:32.685Z,5.22
2019-04-16T13:03:35.078Z,4.97
2019-04-16T13:06:28.772Z,6.15
2019-04-16T13:09:31.032Z,6.80
2019-04-16T13:12:27.202Z,6.45
2019-04-16T13:15:12.757Z,6.45
2019-04-16T13:18:00.178Z,5.92
2019-04-16T13:20:46.134Z,5.40
2019-04-16T13:23:45.353Z,6.72
2019-04-16T13:26:32.445Z,7.45
2019-04-16T13:29:02.587Z,6.15
2019-04-16T13:31:30.558Z,18.12
2019-04-16T13:33:59.040Z,10.50
2019-04-16T13:36:27.962Z,11.15
2019-04-16T13:39:05.653Z,8.50
2019-04-16T13:41:33.543Z,5.65
2019-04-16T13:44:07.959Z,6.30
2019-04-16T13:46:35.799Z,5.05
2019-04-16T13:49:17.929Z,4.65
2019-04-16T13:51:47.845Z,4.53
2019-04-16T13:54:46.363Z,5.42
2019-04-16T13:57:16.926Z,6.15
2019-04-16T14:00:03.163Z,5.12
2019-04-16T14:02:57.100Z,5.12
2019-04-16T14:05:24.892Z,4.67
2019-04-16T14:07:55.467Z,5.58
2019-04-16T14:10:23.197Z,5.70
2019-04-16T14:12:51.197Z,5.35
2019-04-16T14:15:31.896Z,6.58
2019-04-16T14:17:56.468Z,6.45
2019-04-16T14:20:22.989Z,6.58
2019-04-16T14:22:53.569Z,10.50
2019-04-16T14:25:20.759Z,13.00
2019-04-16T14:27:48.616Z,21.07
2019-04-16T14:30:20.710Z,16.02
2019-04-16T14:32:48.599Z,11.20
2019-04-16T14:35:32.498Z,11.08
2019-04-16T14:37:50.399Z,15.43
2019-04-16T14:40:24.474Z,8.05
2019-04-16T14:42:56.042Z,8.70
2019-04-16T14:48:29.444Z,10.15
2019-04-16T14:50:59.257Z,10.35
2019-04-16T14:53:44.102Z,11.10
2019-04-16T14:56:31.216Z,13.10
2019-04-16T14:59:12.922Z,12.15
2019-04-16T15:01:52.791Z,10.90
2019-04-16T15:04:40.160Z,13.45
2019-04-16T15:07:37.320Z,12.10
2019-04-16T15:10:16.439Z,10.40
2019-04-16T15:12:51.911Z,12.60
2019-04-16T15:15:32.995Z,12.35
2019-04-16T15:18:20.399Z,10.48
2019-04-16T15:21:14.674Z,10.48
2019-04-16T15:24:05.231Z,11.30
2019-04-16T15:26:54.539Z,10.82
2019-04-16T15:29:32.238Z,10.43
2019-04-16T15:32:34.082Z,10.38
2019-04-16T15:35:07.253Z,10.70
2019-04-16T15:37:59.377Z,10.00
2019-04-16T15:40:33.061Z,10.08
2019-04-16T15:43:21.328Z,11.80
2019-04-16T15:46:25.014Z,11.78
2019-04-16T15:48:57.629Z,12.03
2019-04-16T15:51:50.769Z,11.55
2019-04-16T15:54:49.721Z,12.15
2019-04-16T15:57:51.148Z,11.08
2019-04-16T16:00:47.943Z,17.23
2019-04-16T16:03:49.994Z,11.08
2019-04-16T16:06:21.655Z,11.30
2019-04-16T16:09:13.101Z,10.18
2019-04-16T16:12:10.977Z,10.60
2019-04-16T16:14:39.170Z,9.85
2019-04-16T16:17:07.157Z,9.65
2019-04-16T16:19:35.040Z,9.63
2019-04-16T16:22:03.083Z,11.00
2019-04-16T16:24:31.600Z,10.60
2019-04-16T16:27:00.914Z,12.98
2019-04-16T16:29:28.563Z,13.72
2019-04-16T16:31:56.443Z,12.45
2019-04-16T16:34:25.059Z,13.20
2019-04-16T16:36:52.944Z,13.78
2019-04-16T16:39:20.817Z,12.60
2019-04-16T16:41:48.722Z,13.65
2019-04-16T16:44:17.493Z,14.03
2019-04-16T16:46:57.204Z,13.85
2019-04-16T16:49:22.972Z,12.95
2019-04-16T16:52:09.015Z,14.78
2019-04-16T16:54:38.260Z,14.35
2019-04-16T16:57:19.386Z,15.55
2019-04-16T17:00:12.443Z,13.75
2019-04-16T17:02:47.581Z,19.48
2019-04-16T17:05:21.307Z,14.55
2019-04-16T17:07:53.545Z,11.10
2019-04-16T17:10:24.474Z,12.30
2019-04-16T17:12:52.658Z,12.43
2019-04-16T17:15:20.723Z,13.43
2019-04-16T17:17:48.484Z,19.73
2019-04-16T17:20:16.443Z,28.65
2019-04-16T17:22:47.075Z,23.10
2019-04-16T17:25:15.008Z,26.95
2019-04-16T17:27:51.127Z,30.35
2019-04-16T17:30:13.313Z,37.60
2019-04-16T17:32:41.444Z,33.42
2019-04-16T17:35:14.401Z,31.75
2019-04-16T17:37:40.072Z,32.50
2019-04-16T17:40:17.054Z,28.83
2019-04-16T17:42:45.117Z,23.32
2019-04-16T17:45:44.878Z,22.70
2019-04-16T17:48:32.011Z,24.10
2019-04-16T17:51:19.531Z,18.42
2019-04-16T17:54:16.600Z,24.87
2019-04-16T17:57:03.737Z,25.20
2019-04-16T17:59:39.988Z,23.98
2019-04-16T18:02:36.362Z,21.52
2019-04-16T18:05:17.571Z,21.80
2019-04-16T18:08:03.984Z,22.35
2019-04-16T18:10:48.357Z,21.33
2019-04-16T18:13:31.890Z,22.50
2019-04-16T18:16:09.314Z,25.25
2019-04-16T18:18:43.629Z,25.43
2019-04-16T18:21:30.746Z,22.50
2019-04-16T18:24:11.325Z,24.43
2019-04-16T18:26:53.698Z,22.87
2019-04-16T18:29:24.403Z,20.80
2019-04-16T18:31:57.592Z,20.70
2019-04-16T18:34:56.576Z,22.25
2019-04-16T18:37:39.580Z,23.00
2019-04-16T18:40:23.360Z,21.15
2019-04-16T18:43:03.258Z,18.37
2019-04-16T18:45:55.806Z,18.52
2019-04-16T18:48:26.896Z,18.37
2019-04-16T18:51:00.537Z,17.95
2019-04-16T18:53:28.807Z,18.17
2019-04-16T18:55:56.614Z,19.30
2019-04-16T18:58:27.637Z,17.52
2019-04-16T19:01:07.288Z,23.90
2019-04-16T19:03:35.318Z,25.88
2019-04-16T19:06:03.298Z,28.50
2019-04-16T19:08:41.515Z,30.48
2019-04-16T19:11:03.151Z,31.97
2019-04-16T19:13:30.728Z,32.33
2019-04-16T19:15:58.480Z,30.43
2019-04-16T19:18:27.431Z,29.77
2019-04-16T19:20:55.372Z,31.55
2019-04-16T19:23:23.163Z,32.17
2019-04-16T19:25:51.838Z,30.40
2019-04-16T19:28:22.424Z,27.17
2019-04-16T19:30:50.117Z,27.55
2019-04-16T19:33:24.031Z,26.68
2019-04-16T19:35:52.778Z,17.90
2019-04-16T19:38:20.532Z,18.57
2019-04-16T19:40:50.859Z,17.55
2019-04-16T19:43:19.999Z,16.67
2019-04-16T19:45:47.926Z,14.60
2019-04-16T19:48:17.862Z,15.30
2019-04-16T19:50:45.554Z,13.10
2019-04-16T19:53:14.955Z,12.33
2019-04-16T19:55:45.809Z,12.28
2019-04-16T19:58:12.970Z,14.40
2019-04-16T20:00:40.810Z,13.13
2019-04-16T20:03:08.389Z,15.35
2019-04-16T20:05:36.132Z,13.65
2019-04-16T20:08:04.027Z,12.58
2019-04-16T20:10:31.824Z,12.28
2019-04-16T20:13:00.131Z,11.73
2019-04-16T20:15:30.640Z,11.57
2019-04-16T20:17:58.727Z,11.63
2019-04-16T20:20:27.061Z,11.60
2019-04-16T20:22:54.918Z,10.68
2019-04-16T20:25:22.762Z,11.75
2019-04-16T20:27:50.346Z,10.90
2019-04-16T20:30:23.110Z,11.57
2019-04-16T20:32:50.162Z,10.05
2019-04-16T20:35:19.095Z,11.75
2019-04-16T20:37:47.112Z,10.75
2019-04-16T20:40:18.745Z,10.82
2019-04-16T20:42:46.363Z,11.05
2019-04-16T20:45:14.634Z,10.18
2019-04-16T20:47:42.592Z,11.75
2019-04-16T20:50:10.433Z,9.78
2019-04-16T20:52:39.117Z,10.95
2019-04-16T20:55:09.497Z,9.63
2019-04-16T20:57:39.226Z,10.45
2019-04-16T21:00:10.840Z,10.60
2019-04-16T21:02:38.906Z,10.45
2019-04-16T21:05:21.639Z,11.10
2019-04-16T21:07:39.889Z,11.05
2019-04-16T21:10:07.559Z,9.63
2019-04-16T21:12:36.760Z,9.68
2019-04-16T21:15:05.905Z,9.80
2019-04-16T21:17:38.136Z,10.48
2019-04-16T21:20:04.034Z,10.50
2019-04-16T21:22:31.907Z,10.60
2019-04-16T21:24:59.618Z,10.68
2019-04-16T21:27:28.503Z,9.93
2019-04-16T21:29:56.336Z,11.45
2019-04-16T21:32:42.506Z,9.45
2019-04-16T21:35:15.681Z,11.03
2019-04-16T21:37:52.934Z,10.88
2019-04-16T21:40:24.095Z,11.57
2019-04-16T21:42:51.797Z,10.60
2019-04-16T21:45:19.608Z,10.88
2019-04-16T21:47:47.520Z,11.70
2019-04-16T21:50:16.460Z,11.50
2019-04-16T21:52:44.872Z,12.03
2019-04-16T21:55:12.962Z,11.40
2019-04-16T21:57:42.805Z,12.47
2019-04-16T22:00:27.803Z,11.88
2019-04-16T22:02:58.028Z,11.70
2019-04-16T22:05:25.916Z,10.88
2019-04-16T22:07:56.607Z,11.53
2019-04-16T22:10:24.478Z,11.45
2019-04-16T22:12:52.311Z,11.73
2019-04-16T22:15:25.117Z,11.48
2019-04-16T22:17:50.094Z,12.82
2019-04-16T22:20:18.094Z,11.60
2019-04-16T22:22:46.549Z,10.98
2019-04-16T22:25:15.818Z,11.97
2019-04-16T22:27:43.587Z,11.60
2019-04-16T22:30:11.552Z,9.40
2019-04-16T22:32:39.375Z,9.98
2019-04-16T22:35:07.378Z,10.45
2019-04-16T22:37:35.158Z,10.55
2019-04-16T22:40:22.549Z,9.45
2019-04-16T22:43:09.379Z,10.35
2019-04-16T22:45:48.067Z,10.98
2019-04-16T22:48:15.841Z,10.63
2019-04-16T22:50:44.843Z,10.58
2019-04-16T22:53:16.933Z,10.88
2019-04-16T22:55:45.789Z,11.22
2019-04-16T22:58:23.526Z,10.82
2019-04-16T23:00:54.177Z,9.73
2019-04-16T23:03:26.513Z,11.22
2019-04-16T23:05:55.866Z,12.00
2019-04-16T23:08:23.420Z,13.32
2019-04-16T23:10:52.145Z,11.22
2019-04-16T23:13:20.634Z,11.78
2019-04-16T23:15:48.486Z,10.78
2019-04-16T23:18:18.831Z,10.88
2019-04-16T23:20:46.688Z,12.13
2019-04-16T23:23:18.038Z,11.95
2019-04-16T23:25:44.450Z,10.98
2019-04-16T23:28:12.272Z,10.90
2019-04-16T23:30:40.199Z,11.70
2019-04-16T23:33:08.026Z,12.25
2019-04-16T23:35:43.348Z,10.70
2019-04-16T23:38:07.016Z,11.38
2019-04-16T23:40:34.942Z,11.80
2019-04-16T23:43:26.771Z,10.80
2019-04-16T23:46:16.446Z,13.00
2019-04-16T23:49:16.526Z,11.43
2019-04-16T23:51:54.012Z,13.28
2019-04-16T23:54:27.192Z,14.00
2019-04-16T23:57:06.661Z,11.40
